sensor_id;sensor_type;location;lat;lon;timestamp;P1;durP1;ratioP1;P2;durP2;ratioP2
74291;SDS011;62687;55.738;37.516;2023-02-19T00:02:19;10.00;;;4.43;;
74291;SDS011;62687;55.738;37.516;2023-02-19T00:05:03;12.32;;;5.38;;
74291;SDS011;62687;55.738;37.516;2023-02-19T00:07:48;12.65;;;5.25;;
74291;SDS011;62687;55.738;37.516;2023-02-19T00:10:32;11.80;;;4.97;;
74291;SDS011;62687;55.738;37.516;2023-02-19T00:13:16;10.00;;;4.82;;
74291;SDS011;62687;55.738;37.516;2023-02-19T00:16:08;13.20;;;5.68;;
74291;SDS011;62687;55.738;37.516;2023-02-19T00:19:00;13.93;;;5.70;;
74291;SDS011;62687;55.738;37.516;2023-02-19T00:21:49;8.88;;;4.50;;
74291;SDS011;62687;55.738;37.516;2023-02-19T00:24:34;11.85;;;5.80;;
74291;SDS011;62687;55.738;37.516;2023-02-19T00:27:18;8.43;;;4.30;;
74291;SDS011;62687;55.738;37.516;2023-02-19T00:30:02;12.88;;;5.63;;
74291;SDS011;62687;55.738;37.516;2023-02-19T00:32:49;11.88;;;5.40;;
74291;SDS011;62687;55.738;37.516;2023-02-19T00:35:34;12.48;;;5.72;;
74291;SDS011;62687;55.738;37.516;2023-02-19T00:38:19;9.05;;;4.30;;
74291;SDS011;62687;55.738;37.516;2023-02-19T00:41:03;9.68;;;4.35;;
74291;SDS011;62687;55.738;37.516;2023-02-19T00:44:02;11.95;;;5.57;;
74291;SDS011;62687;55.738;37.516;2023-02-19T00:46:48;11.82;;;5.35;;
74291;SDS011;62687;55.738;37.516;2023-02-19T00:49:32;11.75;;;5.80;;
74291;SDS011;62687;55.738;37.516;2023-02-19T00:52:16;12.32;;;5.35;;
74291;SDS011;62687;55.738;37.516;2023-02-19T00:55:01;12.40;;;5.63;;
74291;SDS011;62687;55.738;37.516;2023-02-19T00:57:45;4.85;;;2.17;;
74291;SDS011;62687;55.738;37.516;2023-02-19T01:00:29;15.52;;;5.70;;
74291;SDS011;62687;55.738;37.516;2023-02-19T01:03:16;13.90;;;6.63;;
74291;SDS011;62687;55.738;37.516;2023-02-19T01:06:00;12.13;;;5.15;;
74291;SDS011;62687;55.738;37.516;2023-02-19T01:08:45;14.43;;;6.03;;
74291;SDS011;62687;55.738;37.516;2023-02-19T01:11:29;13.35;;;6.28;;
74291;SDS011;62687;55.738;37.516;2023-02-19T01:14:13;12.68;;;5.53;;
74291;SDS011;62687;55.738;37.516;2023-02-19T01:16:57;10.90;;;5.25;;
74291;SDS011;62687;55.738;37.516;2023-02-19T01:19:41;12.43;;;5.95;;
74291;SDS011;62687;55.738;37.516;2023-02-19T01:22:25;11.13;;;4.80;;
74291;SDS011;62687;55.738;37.516;2023-02-19T01:25:10;15.13;;;5.65;;
74291;SDS011;62687;55.738;37.516;2023-02-19T01:27:54;12.95;;;5.60;;
74291;SDS011;62687;55.738;37.516;2023-02-19T01:30:38;12.95;;;5.85;;
74291;SDS011;62687;55.738;37.516;2023-02-19T01:33:22;12.63;;;5.82;;
74291;SDS011;62687;55.738;37.516;2023-02-19T01:36:06;11.02;;;4.47;;
74291;SDS011;62687;55.738;37.516;2023-02-19T01:38:51;14.60;;;6.10;;
74291;SDS011;62687;55.738;37.516;2023-02-19T01:41:37;14.25;;;6.53;;
74291;SDS011;62687;55.738;37.516;2023-02-19T01:47:06;13.50;;;5.88;;
74291;SDS011;62687;55.738;37.516;2023-02-19T01:49:52;13.70;;;5.40;;
74291;SDS011;62687;55.738;37.516;2023-02-19T01:52:39;10.77;;;4.70;;
74291;SDS011;62687;55.738;37.516;2023-02-19T01:55:24;10.07;;;4.90;;
74291;SDS011;62687;55.738;37.516;2023-02-19T01:58:08;6.28;;;2.65;;
74291;SDS011;62687;55.738;37.516;2023-02-19T02:00:53;12.00;;;5.75;;
74291;SDS011;62687;55.738;37.516;2023-02-19T02:03:37;12.70;;;6.00;;
74291;SDS011;62687;55.738;37.516;2023-02-19T02:06:27;10.82;;;3.83;;
74291;SDS011;62687;55.738;37.516;2023-02-19T02:09:14;12.88;;;6.03;;
74291;SDS011;62687;55.738;37.516;2023-02-19T02:12:18;10.48;;;5.30;;
74291;SDS011;62687;55.738;37.516;2023-02-19T02:15:02;8.55;;;3.80;;
74291;SDS011;62687;55.738;37.516;2023-02-19T02:18:05;10.93;;;5.50;;
74291;SDS011;62687;55.738;37.516;2023-02-19T02:36:17;11.98;;;5.13;;
74291;SDS011;62687;55.738;37.516;2023-02-19T02:39:05;9.45;;;4.00;;
74291;SDS011;62687;55.738;37.516;2023-02-19T02:41:57;10.73;;;4.70;;
74291;SDS011;62687;55.738;37.516;2023-02-19T02:48:35;10.40;;;4.90;;
74291;SDS011;62687;55.738;37.516;2023-02-19T02:51:46;12.23;;;5.35;;
74291;SDS011;62687;55.738;37.516;2023-02-19T02:54:35;11.55;;;5.25;;
74291;SDS011;62687;55.738;37.516;2023-02-19T02:57:39;12.40;;;5.10;;
74291;SDS011;62687;55.738;37.516;2023-02-19T03:00:23;10.13;;;4.63;;
74291;SDS011;62687;55.738;37.516;2023-02-19T03:03:29;12.80;;;5.82;;
74291;SDS011;62687;55.738;37.516;2023-02-19T03:06:15;12.20;;;5.18;;
74291;SDS011;62687;55.738;37.516;2023-02-19T03:09:12;13.82;;;4.97;;
74291;SDS011;62687;55.738;37.516;2023-02-19T03:12:02;11.20;;;5.55;;
74291;SDS011;62687;55.738;37.516;2023-02-19T03:15:08;12.70;;;5.97;;
74291;SDS011;62687;55.738;37.516;2023-02-19T03:18:14;10.48;;;4.43;;
74291;SDS011;62687;55.738;37.516;2023-02-19T03:21:20;8.70;;;3.83;;
74291;SDS011;62687;55.738;37.516;2023-02-19T03:24:06;11.90;;;5.53;;
74291;SDS011;62687;55.738;37.516;2023-02-19T03:27:13;9.05;;;4.70;;
74291;SDS011;62687;55.738;37.516;2023-02-19T03:30:00;9.80;;;4.20;;
74291;SDS011;62687;55.738;37.516;2023-02-19T03:32:52;11.80;;;4.35;;
74291;SDS011;62687;55.738;37.516;2023-02-19T03:35:47;10.43;;;4.95;;
74291;SDS011;62687;55.738;37.516;2023-02-19T03:38:37;12.98;;;5.82;;
74291;SDS011;62687;55.738;37.516;2023-02-19T03:50:27;12.05;;;5.35;;
74291;SDS011;62687;55.738;37.516;2023-02-19T03:53:45;12.57;;;4.63;;
74291;SDS011;62687;55.738;37.516;2023-02-19T03:56:44;11.27;;;5.28;;
74291;SDS011;62687;55.738;37.516;2023-02-19T03:59:42;8.82;;;3.80;;
74291;SDS011;62687;55.738;37.516;2023-02-19T04:02:42;10.20;;;4.65;;
74291;SDS011;62687;55.738;37.516;2023-02-19T04:05:32;8.63;;;4.10;;
74291;SDS011;62687;55.738;37.516;2023-02-19T04:08:22;11.90;;;4.60;;
74291;SDS011;62687;55.738;37.516;2023-02-19T04:11:08;10.85;;;5.70;;
74291;SDS011;62687;55.738;37.516;2023-02-19T04:13:55;9.00;;;4.22;;
74291;SDS011;62687;55.738;37.516;2023-02-19T04:16:46;9.98;;;4.38;;
74291;SDS011;62687;55.738;37.516;2023-02-19T04:19:35;12.35;;;4.70;;
74291;SDS011;62687;55.738;37.516;2023-02-19T04:22:22;6.05;;;2.75;;
74291;SDS011;62687;55.738;37.516;2023-02-19T04:25:07;10.25;;;4.95;;
74291;SDS011;62687;55.738;37.516;2023-02-19T04:27:51;10.93;;;4.85;;
74291;SDS011;62687;55.738;37.516;2023-02-19T04:30:36;11.40;;;4.45;;
74291;SDS011;62687;55.738;37.516;2023-02-19T04:33:20;12.38;;;4.93;;
74291;SDS011;62687;55.738;37.516;2023-02-19T04:36:05;10.60;;;4.13;;
74291;SDS011;62687;55.738;37.516;2023-02-19T04:38:50;10.65;;;5.13;;
74291;SDS011;62687;55.738;37.516;2023-02-19T04:41:34;10.77;;;4.10;;
74291;SDS011;62687;55.738;37.516;2023-02-19T04:44:18;9.65;;;4.65;;
74291;SDS011;62687;55.738;37.516;2023-02-19T04:47:02;10.80;;;4.63;;
74291;SDS011;62687;55.738;37.516;2023-02-19T04:49:47;10.13;;;4.82;;
74291;SDS011;62687;55.738;37.516;2023-02-19T04:52:31;8.05;;;3.83;;
74291;SDS011;62687;55.738;37.516;2023-02-19T04:55:16;11.32;;;4.90;;
74291;SDS011;62687;55.738;37.516;2023-02-19T04:58:00;11.45;;;5.63;;
74291;SDS011;62687;55.738;37.516;2023-02-19T05:00:44;10.43;;;4.47;;
74291;SDS011;62687;55.738;37.516;2023-02-19T05:03:28;8.40;;;4.22;;
74291;SDS011;62687;55.738;37.516;2023-02-19T05:06:13;8.32;;;4.25;;
74291;SDS011;62687;55.738;37.516;2023-02-19T05:08:57;8.20;;;4.03;;
74291;SDS011;62687;55.738;37.516;2023-02-19T05:11:41;8.40;;;4.18;;
74291;SDS011;62687;55.738;37.516;2023-02-19T05:14:25;10.15;;;4.70;;
74291;SDS011;62687;55.738;37.516;2023-02-19T05:17:09;10.70;;;5.13;;
74291;SDS011;62687;55.738;37.516;2023-02-19T05:19:53;10.00;;;3.78;;
74291;SDS011;62687;55.738;37.516;2023-02-19T05:22:37;10.48;;;4.20;;
74291;SDS011;62687;55.738;37.516;2023-02-19T05:25:21;10.45;;;4.70;;
74291;SDS011;62687;55.738;37.516;2023-02-19T05:28:05;7.28;;;3.28;;
74291;SDS011;62687;55.738;37.516;2023-02-19T05:31:05;8.10;;;3.65;;
74291;SDS011;62687;55.738;37.516;2023-02-19T05:33:51;6.38;;;2.97;;
74291;SDS011;62687;55.738;37.516;2023-02-19T05:36:36;9.25;;;4.00;;
74291;SDS011;62687;55.738;37.516;2023-02-19T05:39:20;8.05;;;3.90;;
74291;SDS011;62687;55.738;37.516;2023-02-19T05:42:04;13.25;;;4.70;;
74291;SDS011;62687;55.738;37.516;2023-02-19T05:44:48;9.95;;;4.10;;
74291;SDS011;62687;55.738;37.516;2023-02-19T05:47:32;10.40;;;4.47;;
74291;SDS011;62687;55.738;37.516;2023-02-19T05:50:18;10.60;;;4.13;;
74291;SDS011;62687;55.738;37.516;2023-02-19T05:53:02;7.60;;;3.58;;
74291;SDS011;62687;55.738;37.516;2023-02-19T05:55:47;9.43;;;4.38;;
74291;SDS011;62687;55.738;37.516;2023-02-19T05:58:31;11.38;;;4.05;;
74291;SDS011;62687;55.738;37.516;2023-02-19T06:01:16;9.35;;;4.35;;
74291;SDS011;62687;55.738;37.516;2023-02-19T06:09:29;11.02;;;3.90;;
74291;SDS011;62687;55.738;37.516;2023-02-19T06:12:14;6.60;;;2.30;;
74291;SDS011;62687;55.738;37.516;2023-02-19T06:14:58;9.18;;;4.15;;
74291;SDS011;62687;55.738;37.516;2023-02-19T06:17:42;9.65;;;3.45;;
74291;SDS011;62687;55.738;37.516;2023-02-19T06:20:26;10.05;;;4.55;;
74291;SDS011;62687;55.738;37.516;2023-02-19T06:23:11;7.43;;;3.08;;
74291;SDS011;62687;55.738;37.516;2023-02-19T06:26:03;10.73;;;4.07;;
74291;SDS011;62687;55.738;37.516;2023-02-19T06:28:51;6.93;;;3.28;;
74291;SDS011;62687;55.738;37.516;2023-02-19T06:37:04;7.18;;;3.00;;
74291;SDS011;62687;55.738;37.516;2023-02-19T06:39:48;7.55;;;3.35;;
74291;SDS011;62687;55.738;37.516;2023-02-19T06:42:33;5.93;;;2.63;;
74291;SDS011;62687;55.738;37.516;2023-02-19T06:45:17;9.15;;;4.10;;
74291;SDS011;62687;55.738;37.516;2023-02-19T06:48:01;7.75;;;2.80;;
74291;SDS011;62687;55.738;37.516;2023-02-19T06:50:46;10.07;;;4.50;;
74291;SDS011;62687;55.738;37.516;2023-02-19T06:53:30;7.38;;;3.42;;
74291;SDS011;62687;55.738;37.516;2023-02-19T06:56:35;7.90;;;4.07;;
74291;SDS011;62687;55.738;37.516;2023-02-19T06:59:23;10.45;;;3.72;;
74291;SDS011;62687;55.738;37.516;2023-02-19T07:02:09;12.60;;;4.25;;
74291;SDS011;62687;55.738;37.516;2023-02-19T07:04:55;8.35;;;3.90;;
74291;SDS011;62687;55.738;37.516;2023-02-19T07:07:39;9.00;;;3.22;;
74291;SDS011;62687;55.738;37.516;2023-02-19T07:10:23;11.30;;;4.43;;
74291;SDS011;62687;55.738;37.516;2023-02-19T07:13:07;10.82;;;4.22;;
74291;SDS011;62687;55.738;37.516;2023-02-19T07:15:51;10.35;;;4.38;;
74291;SDS011;62687;55.738;37.516;2023-02-19T07:18:41;10.65;;;4.13;;
74291;SDS011;62687;55.738;37.516;2023-02-19T07:21:27;9.02;;;4.15;;
74291;SDS011;62687;55.738;37.516;2023-02-19T07:24:12;6.18;;;2.88;;
74291;SDS011;62687;55.738;37.516;2023-02-19T07:26:57;12.93;;;4.28;;
74291;SDS011;62687;55.738;37.516;2023-02-19T07:29:41;10.57;;;4.72;;
74291;SDS011;62687;55.738;37.516;2023-02-19T07:32:14;8.50;;;4.10;;
74291;SDS011;62687;55.738;37.516;2023-02-19T07:34:59;10.20;;;4.68;;
74291;SDS011;62687;55.738;37.516;2023-02-19T07:37:43;9.68;;;4.05;;
74291;SDS011;62687;55.738;37.516;2023-02-19T07:40:27;11.68;;;3.80;;
74291;SDS011;62687;55.738;37.516;2023-02-19T07:43:11;8.02;;;3.50;;
74291;SDS011;62687;55.738;37.516;2023-02-19T07:45:55;10.68;;;5.47;;
74291;SDS011;62687;55.738;37.516;2023-02-19T07:48:40;10.05;;;4.60;;
74291;SDS011;62687;55.738;37.516;2023-02-19T07:51:26;9.40;;;4.85;;
74291;SDS011;62687;55.738;37.516;2023-02-19T07:54:10;11.73;;;4.22;;
74291;SDS011;62687;55.738;37.516;2023-02-19T07:56:54;8.77;;;2.85;;
74291;SDS011;62687;55.738;37.516;2023-02-19T07:59:38;8.77;;;4.22;;
74291;SDS011;62687;55.738;37.516;2023-02-19T08:02:22;8.98;;;4.40;;
74291;SDS011;62687;55.738;37.516;2023-02-19T08:05:29;10.25;;;5.03;;
74291;SDS011;62687;55.738;37.516;2023-02-19T08:08:20;8.30;;;4.00;;
74291;SDS011;62687;55.738;37.516;2023-02-19T08:11:04;11.98;;;4.75;;
74291;SDS011;62687;55.738;37.516;2023-02-19T08:14:07;9.02;;;4.78;;
74291;SDS011;62687;55.738;37.516;2023-02-19T08:16:51;8.80;;;3.90;;
74291;SDS011;62687;55.738;37.516;2023-02-19T08:19:36;11.65;;;4.55;;
74291;SDS011;62687;55.738;37.516;2023-02-19T08:22:20;8.13;;;4.22;;
74291;SDS011;62687;55.738;37.516;2023-02-19T08:25:04;9.02;;;4.75;;
74291;SDS011;62687;55.738;37.516;2023-02-19T08:27:49;10.88;;;4.53;;
74291;SDS011;62687;55.738;37.516;2023-02-19T08:30:33;9.55;;;3.90;;
74291;SDS011;62687;55.738;37.516;2023-02-19T08:33:18;9.60;;;3.83;;
74291;SDS011;62687;55.738;37.516;2023-02-19T08:36:04;14.57;;;4.53;;
74291;SDS011;62687;55.738;37.516;2023-02-19T08:38:50;11.98;;;4.60;;
74291;SDS011;62687;55.738;37.516;2023-02-19T08:41:34;13.57;;;3.75;;
74291;SDS011;62687;55.738;37.516;2023-02-19T08:44:18;9.77;;;4.45;;
74291;SDS011;62687;55.738;37.516;2023-02-19T08:47:02;10.38;;;4.72;;
74291;SDS011;62687;55.738;37.516;2023-02-19T08:49:47;10.70;;;4.88;;
74291;SDS011;62687;55.738;37.516;2023-02-19T08:52:31;12.55;;;4.78;;
74291;SDS011;62687;55.738;37.516;2023-02-19T08:55:16;7.90;;;3.83;;
74291;SDS011;62687;55.738;37.516;2023-02-19T08:58:01;11.18;;;4.78;;
74291;SDS011;62687;55.738;37.516;2023-02-19T09:00:45;9.02;;;4.43;;
74291;SDS011;62687;55.738;37.516;2023-02-19T09:03:29;11.05;;;4.68;;
74291;SDS011;62687;55.738;37.516;2023-02-19T09:06:13;6.88;;;4.03;;
74291;SDS011;62687;55.738;37.516;2023-02-19T09:08:59;8.40;;;3.88;;
74291;SDS011;62687;55.738;37.516;2023-02-19T09:11:43;7.93;;;4.10;;
74291;SDS011;62687;55.738;37.516;2023-02-19T09:14:30;11.18;;;4.82;;
74291;SDS011;62687;55.738;37.516;2023-02-19T09:17:15;10.02;;;4.82;;
74291;SDS011;62687;55.738;37.516;2023-02-19T09:19:59;11.02;;;5.00;;
74291;SDS011;62687;55.738;37.516;2023-02-19T09:22:43;10.65;;;4.70;;
74291;SDS011;62687;55.738;37.516;2023-02-19T09:25:27;9.18;;;4.30;;
74291;SDS011;62687;55.738;37.516;2023-02-19T09:28:11;8.48;;;3.15;;
74291;SDS011;62687;55.738;37.516;2023-02-19T09:30:55;10.60;;;5.35;;
74291;SDS011;62687;55.738;37.516;2023-02-19T09:33:43;9.80;;;4.40;;
74291;SDS011;62687;55.738;37.516;2023-02-19T09:36:28;10.48;;;4.65;;
74291;SDS011;62687;55.738;37.516;2023-02-19T09:39:12;11.55;;;4.90;;
74291;SDS011;62687;55.738;37.516;2023-02-19T09:42:16;9.02;;;4.22;;
74291;SDS011;62687;55.738;37.516;2023-02-19T09:45:03;9.05;;;4.25;;
74291;SDS011;62687;55.738;37.516;2023-02-19T09:47:48;11.52;;;4.47;;
74291;SDS011;62687;55.738;37.516;2023-02-19T09:50:38;14.35;;;5.20;;
74291;SDS011;62687;55.738;37.516;2023-02-19T09:53:28;8.30;;;3.35;;
74291;SDS011;62687;55.738;37.516;2023-02-19T09:56:23;11.25;;;4.85;;
74291;SDS011;62687;55.738;37.516;2023-02-19T09:59:13;8.50;;;4.60;;
74291;SDS011;62687;55.738;37.516;2023-02-19T10:02:04;10.18;;;5.30;;
74291;SDS011;62687;55.738;37.516;2023-02-19T10:04:53;8.40;;;4.47;;
74291;SDS011;62687;55.738;37.516;2023-02-19T10:07:39;9.45;;;4.47;;
74291;SDS011;62687;55.738;37.516;2023-02-19T10:10:31;9.90;;;5.00;;
74291;SDS011;62687;55.738;37.516;2023-02-19T10:14:00;13.10;;;4.93;;
74291;SDS011;62687;55.738;37.516;2023-02-19T10:16:34;10.50;;;5.28;;
74291;SDS011;62687;55.738;37.516;2023-02-19T10:19:23;9.63;;;4.70;;
74291;SDS011;62687;55.738;37.516;2023-02-19T10:22:07;11.25;;;5.72;;
74291;SDS011;62687;55.738;37.516;2023-02-19T10:24:54;13.50;;;5.50;;
74291;SDS011;62687;55.738;37.516;2023-02-19T10:27:39;10.30;;;4.65;;
74291;SDS011;62687;55.738;37.516;2023-02-19T10:30:24;15.35;;;6.47;;
74291;SDS011;62687;55.738;37.516;2023-02-19T10:33:11;10.98;;;5.45;;
74291;SDS011;62687;55.738;37.516;2023-02-19T10:36:04;8.75;;;4.07;;
74291;SDS011;62687;55.738;37.516;2023-02-19T10:38:50;12.23;;;5.97;;
74291;SDS011;62687;55.738;37.516;2023-02-19T10:41:35;10.70;;;5.07;;
74291;SDS011;62687;55.738;37.516;2023-02-19T10:44:24;10.35;;;4.90;;
74291;SDS011;62687;55.738;37.516;2023-02-19T10:47:19;12.38;;;4.63;;
74291;SDS011;62687;55.738;37.516;2023-02-19T10:50:06;10.95;;;5.18;;
74291;SDS011;62687;55.738;37.516;2023-02-19T10:53:07;12.35;;;4.80;;
74291;SDS011;62687;55.738;37.516;2023-02-19T10:56:07;11.02;;;5.18;;
74291;SDS011;62687;55.738;37.516;2023-02-19T10:59:18;7.32;;;3.78;;
74291;SDS011;62687;55.738;37.516;2023-02-19T11:02:14;10.63;;;4.90;;
74291;SDS011;62687;55.738;37.516;2023-02-19T11:05:01;9.20;;;3.92;;
74291;SDS011;62687;55.738;37.516;2023-02-19T11:07:51;13.90;;;6.20;;
74291;SDS011;62687;55.738;37.516;2023-02-19T11:10:38;11.10;;;5.00;;
74291;SDS011;62687;55.738;37.516;2023-02-19T11:13:28;10.85;;;5.95;;
74291;SDS011;62687;55.738;37.516;2023-02-19T11:16:15;11.98;;;6.25;;
74291;SDS011;62687;55.738;37.516;2023-02-19T11:18:59;9.55;;;5.35;;
74291;SDS011;62687;55.738;37.516;2023-02-19T11:21:43;13.05;;;6.10;;
74291;SDS011;62687;55.738;37.516;2023-02-19T11:24:28;15.13;;;6.38;;
74291;SDS011;62687;55.738;37.516;2023-02-19T11:27:18;14.48;;;6.90;;
74291;SDS011;62687;55.738;37.516;2023-02-19T11:30:21;12.13;;;5.20;;
74291;SDS011;62687;55.738;37.516;2023-02-19T11:36:21;11.85;;;5.45;;
74291;SDS011;62687;55.738;37.516;2023-02-19T11:45:05;11.95;;;5.53;;
74291;SDS011;62687;55.738;37.516;2023-02-19T11:54:30;12.95;;;5.15;;
74291;SDS011;62687;55.738;37.516;2023-02-19T12:00:30;12.57;;;6.03;;
74291;SDS011;62687;55.738;37.516;2023-02-19T12:06:18;13.32;;;6.07;;
74291;SDS011;62687;55.738;37.516;2023-02-19T12:18:13;8.70;;;3.85;;
74291;SDS011;62687;55.738;37.516;2023-02-19T12:21:27;11.73;;;5.45;;
74291;SDS011;62687;55.738;37.516;2023-02-19T12:42:50;13.18;;;5.95;;
74291;SDS011;62687;55.738;37.516;2023-02-19T12:48:51;10.02;;;5.57;;
74291;SDS011;62687;55.738;37.516;2023-02-19T12:54:29;13.85;;;6.75;;
74291;SDS011;62687;55.738;37.516;2023-02-19T12:57:22;16.52;;;6.78;;
74291;SDS011;62687;55.738;37.516;2023-02-19T13:00:30;13.32;;;6.45;;
74291;SDS011;62687;55.738;37.516;2023-02-19T13:03:32;15.23;;;6.65;;
74291;SDS011;62687;55.738;37.516;2023-02-19T13:09:42;13.60;;;6.53;;
74291;SDS011;62687;55.738;37.516;2023-02-19T13:12:37;13.00;;;6.15;;
74291;SDS011;62687;55.738;37.516;2023-02-19T13:15:40;13.13;;;5.97;;
74291;SDS011;62687;55.738;37.516;2023-02-19T13:18:28;12.77;;;6.53;;
74291;SDS011;62687;55.738;37.516;2023-02-19T13:21:19;11.55;;;5.97;;
74291;SDS011;62687;55.738;37.516;2023-02-19T13:30:29;13.50;;;6.10;;
74291;SDS011;62687;55.738;37.516;2023-02-19T13:36:52;13.75;;;6.28;;
74291;SDS011;62687;55.738;37.516;2023-02-19T13:39:44;11.55;;;6.32;;
74291;SDS011;62687;55.738;37.516;2023-02-19T13:42:34;14.40;;;6.22;;
74291;SDS011;62687;55.738;37.516;2023-02-19T13:45:41;13.23;;;6.25;;
74291;SDS011;62687;55.738;37.516;2023-02-19T13:48:26;13.73;;;6.32;;
74291;SDS011;62687;55.738;37.516;2023-02-19T13:54:12;13.55;;;6.72;;
74291;SDS011;62687;55.738;37.516;2023-02-19T14:00:00;13.38;;;6.32;;
74291;SDS011;62687;55.738;37.516;2023-02-19T14:02:45;14.23;;;6.93;;
74291;SDS011;62687;55.738;37.516;2023-02-19T14:08:51;13.18;;;6.13;;
74291;SDS011;62687;55.738;37.516;2023-02-19T14:23:00;13.32;;;5.70;;
74291;SDS011;62687;55.738;37.516;2023-02-19T14:25:58;14.27;;;5.90;;
74291;SDS011;62687;55.738;37.516;2023-02-19T14:28:44;16.85;;;6.30;;
74291;SDS011;62687;55.738;37.516;2023-02-19T14:31:29;11.60;;;5.90;;
74291;SDS011;62687;55.738;37.516;2023-02-19T14:34:19;13.00;;;5.85;;
74291;SDS011;62687;55.738;37.516;2023-02-19T14:37:08;11.25;;;5.43;;
74291;SDS011;62687;55.738;37.516;2023-02-19T14:40:01;8.95;;;4.10;;
74291;SDS011;62687;55.738;37.516;2023-02-19T14:42:46;15.18;;;6.05;;
74291;SDS011;62687;55.738;37.516;2023-02-19T14:45:36;13.00;;;5.45;;
74291;SDS011;62687;55.738;37.516;2023-02-19T14:48:27;12.15;;;4.85;;
74291;SDS011;62687;55.738;37.516;2023-02-19T14:51:38;11.93;;;5.18;;
74291;SDS011;62687;55.738;37.516;2023-02-19T14:54:30;14.18;;;5.68;;
74291;SDS011;62687;55.738;37.516;2023-02-19T14:57:22;13.98;;;6.43;;
74291;SDS011;62687;55.738;37.516;2023-02-19T15:00:20;13.65;;;5.88;;
74291;SDS011;62687;55.738;37.516;2023-02-19T15:03:29;14.95;;;5.97;;
74291;SDS011;62687;55.738;37.516;2023-02-19T15:06:19;14.05;;;5.38;;
74291;SDS011;62687;55.738;37.516;2023-02-19T15:09:07;12.93;;;5.78;;
74291;SDS011;62687;55.738;37.516;2023-02-19T15:11:55;11.93;;;5.82;;
74291;SDS011;62687;55.738;37.516;2023-02-19T15:14:45;11.93;;;5.22;;
74291;SDS011;62687;55.738;37.516;2023-02-19T15:17:34;8.93;;;3.55;;
74291;SDS011;62687;55.738;37.516;2023-02-19T15:20:26;12.43;;;5.57;;
74291;SDS011;62687;55.738;37.516;2023-02-19T15:23:20;12.77;;;6.30;;
74291;SDS011;62687;55.738;37.516;2023-02-19T15:26:21;15.48;;;6.13;;
74291;SDS011;62687;55.738;37.516;2023-02-19T15:29:17;12.55;;;6.05;;
74291;SDS011;62687;55.738;37.516;2023-02-19T15:32:12;12.75;;;5.68;;
74291;SDS011;62687;55.738;37.516;2023-02-19T15:35:05;18.02;;;5.95;;
74291;SDS011;62687;55.738;37.516;2023-02-19T15:38:08;15.00;;;6.57;;
74291;SDS011;62687;55.738;37.516;2023-02-19T15:40:55;20.00;;;7.00;;
74291;SDS011;62687;55.738;37.516;2023-02-19T15:43:43;14.35;;;6.97;;
74291;SDS011;62687;55.738;37.516;2023-02-19T15:46:37;12.30;;;5.82;;
74291;SDS011;62687;55.738;37.516;2023-02-19T15:49:25;16.10;;;6.78;;
74291;SDS011;62687;55.738;37.516;2023-02-19T15:52:20;15.95;;;6.47;;
74291;SDS011;62687;55.738;37.516;2023-02-19T16:01:09;16.20;;;6.88;;
74291;SDS011;62687;55.738;37.516;2023-02-19T16:03:56;15.05;;;6.50;;
74291;SDS011;62687;55.738;37.516;2023-02-19T16:06:57;17.08;;;6.45;;
74291;SDS011;62687;55.738;37.516;2023-02-19T16:09:45;14.80;;;6.32;;
74291;SDS011;62687;55.738;37.516;2023-02-19T16:12:29;13.95;;;6.28;;
74291;SDS011;62687;55.738;37.516;2023-02-19T16:15:17;14.52;;;6.38;;
74291;SDS011;62687;55.738;37.516;2023-02-19T16:18:02;12.45;;;5.88;;
74291;SDS011;62687;55.738;37.516;2023-02-19T16:20:47;12.27;;;5.93;;
74291;SDS011;62687;55.738;37.516;2023-02-19T16:23:32;15.40;;;6.63;;
74291;SDS011;62687;55.738;37.516;2023-02-19T16:26:16;15.15;;;5.82;;
74291;SDS011;62687;55.738;37.516;2023-02-19T16:29:01;13.18;;;5.38;;
74291;SDS011;62687;55.738;37.516;2023-02-19T16:31:49;17.02;;;6.78;;
74291;SDS011;62687;55.738;37.516;2023-02-19T16:34:47;10.60;;;3.88;;
74291;SDS011;62687;55.738;37.516;2023-02-19T16:37:37;14.82;;;6.78;;
74291;SDS011;62687;55.738;37.516;2023-02-19T16:46:22;19.60;;;6.63;;
74291;SDS011;62687;55.738;37.516;2023-02-19T16:49:07;18.75;;;7.25;;
74291;SDS011;62687;55.738;37.516;2023-02-19T16:51:52;15.27;;;7.75;;
74291;SDS011;62687;55.738;37.516;2023-02-19T16:54:37;14.65;;;6.88;;
74291;SDS011;62687;55.738;37.516;2023-02-19T16:57:21;16.40;;;6.82;;
74291;SDS011;62687;55.738;37.516;2023-02-19T17:00:05;13.52;;;6.25;;
74291;SDS011;62687;55.738;37.516;2023-02-19T17:02:50;15.10;;;7.13;;
74291;SDS011;62687;55.738;37.516;2023-02-19T17:05:36;15.73;;;6.97;;
74291;SDS011;62687;55.738;37.516;2023-02-19T17:11:21;15.70;;;7.15;;
74291;SDS011;62687;55.738;37.516;2023-02-19T17:14:05;15.80;;;7.00;;
74291;SDS011;62687;55.738;37.516;2023-02-19T17:16:49;19.77;;;7.70;;
74291;SDS011;62687;55.738;37.516;2023-02-19T17:19:33;14.10;;;7.20;;
74291;SDS011;62687;55.738;37.516;2023-02-19T17:22:17;19.77;;;7.68;;
74291;SDS011;62687;55.738;37.516;2023-02-19T17:25:01;15.23;;;6.47;;
74291;SDS011;62687;55.738;37.516;2023-02-19T17:27:45;15.20;;;6.65;;
74291;SDS011;62687;55.738;37.516;2023-02-19T17:30:30;14.70;;;6.70;;
74291;SDS011;62687;55.738;37.516;2023-02-19T17:33:16;14.50;;;6.32;;
74291;SDS011;62687;55.738;37.516;2023-02-19T17:36:00;16.15;;;7.07;;
74291;SDS011;62687;55.738;37.516;2023-02-19T17:38:44;16.35;;;7.50;;
74291;SDS011;62687;55.738;37.516;2023-02-19T17:41:28;17.65;;;7.30;;
74291;SDS011;62687;55.738;37.516;2023-02-19T17:44:12;15.43;;;7.65;;
74291;SDS011;62687;55.738;37.516;2023-02-19T17:46:56;18.08;;;6.85;;
74291;SDS011;62687;55.738;37.516;2023-02-19T17:49:41;18.15;;;6.90;;
74291;SDS011;62687;55.738;37.516;2023-02-19T17:52:25;19.00;;;7.30;;
74291;SDS011;62687;55.738;37.516;2023-02-19T17:55:12;15.18;;;7.15;;
74291;SDS011;62687;55.738;37.516;2023-02-19T17:58:00;17.25;;;7.82;;
74291;SDS011;62687;55.738;37.516;2023-02-19T18:00:44;16.00;;;7.30;;
74291;SDS011;62687;55.738;37.516;2023-02-19T18:03:28;16.58;;;7.53;;
74291;SDS011;62687;55.738;37.516;2023-02-19T18:06:13;15.15;;;6.63;;
74291;SDS011;62687;55.738;37.516;2023-02-19T18:08:57;14.95;;;6.45;;
74291;SDS011;62687;55.738;37.516;2023-02-19T18:11:44;20.92;;;8.07;;
74291;SDS011;62687;55.738;37.516;2023-02-19T18:14:28;14.52;;;6.32;;
74291;SDS011;62687;55.738;37.516;2023-02-19T18:17:13;16.13;;;7.43;;
74291;SDS011;62687;55.738;37.516;2023-02-19T18:19:57;15.65;;;7.13;;
74291;SDS011;62687;55.738;37.516;2023-02-19T18:22:41;13.02;;;5.72;;
74291;SDS011;62687;55.738;37.516;2023-02-19T18:25:26;15.80;;;7.68;;
74291;SDS011;62687;55.738;37.516;2023-02-19T18:28:10;19.23;;;7.78;;
74291;SDS011;62687;55.738;37.516;2023-02-19T18:30:54;16.88;;;8.00;;
74291;SDS011;62687;55.738;37.516;2023-02-19T18:33:38;16.58;;;7.68;;
74291;SDS011;62687;55.738;37.516;2023-02-19T18:36:22;20.08;;;8.27;;
74291;SDS011;62687;55.738;37.516;2023-02-19T18:39:06;18.17;;;7.65;;
74291;SDS011;62687;55.738;37.516;2023-02-19T18:41:50;15.50;;;7.25;;
74291;SDS011;62687;55.738;37.516;2023-02-19T18:44:34;18.48;;;7.65;;
74291;SDS011;62687;55.738;37.516;2023-02-19T18:47:19;18.02;;;8.07;;
74291;SDS011;62687;55.738;37.516;2023-02-19T18:50:04;17.60;;;8.15;;
74291;SDS011;62687;55.738;37.516;2023-02-19T18:52:51;19.30;;;8.80;;